Terminal Aerodrome Forecast
Issued by NWS

Home | Current Version | Previous Version | Text Only | Print | Product List | Glossary On
Versions: 1 2 3 4 5 6 7 8 9 10 11 12 13 14 15
000
FTUS43 KMQT 221736
TAFCMX
TAF
KCMX 221736Z 2218/2318 VRB05KT P6SM FEW200
     FM230000 11005KT P6SM SCT200
     FM230600 15007KT P6SM BKN150
     FM231200 17010G20KT P6SM VCSH OVC050
     FM231500 17013G23KT 4SM -SHSN SCT010 OVC030=

USA.gov is the U.S. government's official web portal to all federal, state and local government web resources and services.